sensor_id;sensor_type;location;lat;lon;timestamp;P1;durP1;ratioP1;P2;durP2;ratioP2
11518;SDS011;5816;48.228;14.116;2023-01-09T05:30:23;31.30;;;27.90;;
11518;SDS011;5816;48.228;14.116;2023-01-09T05:35:24;33.37;;;29.83;;
11518;SDS011;5816;48.228;14.116;2023-01-09T05:40:26;32.07;;;28.63;;
11518;SDS011;5816;48.228;14.116;2023-01-09T05:45:38;32.93;;;29.40;;
11518;SDS011;5816;48.228;14.116;2023-01-09T05:50:40;31.20;;;28.00;;
11518;SDS011;5816;48.228;14.116;2023-01-09T05:55:42;32.47;;;29.17;;
11518;SDS011;5816;48.228;14.116;2023-01-09T06:00:44;31.43;;;28.17;;
11518;SDS011;5816;48.228;14.116;2023-01-09T06:05:46;32.07;;;28.67;;
11518;SDS011;5816;48.228;14.116;2023-01-09T06:10:48;31.17;;;28.07;;
11518;SDS011;5816;48.228;14.116;2023-01-09T06:15:49;31.77;;;28.70;;
11518;SDS011;5816;48.228;14.116;2023-01-09T06:20:51;32.80;;;29.40;;
11518;SDS011;5816;48.228;14.116;2023-01-09T06:25:53;33.07;;;29.30;;
11518;SDS011;5816;48.228;14.116;2023-01-09T06:30:54;32.37;;;29.03;;
11518;SDS011;5816;48.228;14.116;2023-01-09T06:35:56;32.50;;;29.10;;
11518;SDS011;5816;48.228;14.116;2023-01-09T06:40:58;33.63;;;30.03;;
11518;SDS011;5816;48.228;14.116;2023-01-09T06:46:00;35.77;;;29.07;;
11518;SDS011;5816;48.228;14.116;2023-01-09T06:51:02;33.33;;;29.70;;
11518;SDS011;5816;48.228;14.116;2023-01-09T06:56:03;36.27;;;31.17;;
11518;SDS011;5816;48.228;14.116;2023-01-09T07:01:05;36.10;;;31.03;;
11518;SDS011;5816;48.228;14.116;2023-01-09T07:06:07;35.27;;;31.47;;
11518;SDS011;5816;48.228;14.116;2023-01-09T07:11:09;34.30;;;30.60;;
11518;SDS011;5816;48.228;14.116;2023-01-09T07:16:11;33.70;;;30.03;;
11518;SDS011;5816;48.228;14.116;2023-01-09T07:21:13;33.87;;;30.10;;
11518;SDS011;5816;48.228;14.116;2023-01-09T07:26:14;33.60;;;30.10;;
11518;SDS011;5816;48.228;14.116;2023-01-09T07:31:16;33.57;;;30.27;;
11518;SDS011;5816;48.228;14.116;2023-01-09T07:36:17;32.93;;;29.63;;
11518;SDS011;5816;48.228;14.116;2023-01-09T07:41:19;31.93;;;28.73;;
11518;SDS011;5816;48.228;14.116;2023-01-09T07:46:21;32.47;;;29.07;;
11518;SDS011;5816;48.228;14.116;2023-01-09T07:51:23;34.13;;;30.57;;
11518;SDS011;5816;48.228;14.116;2023-01-09T07:56:25;32.93;;;29.47;;
11518;SDS011;5816;48.228;14.116;2023-01-09T08:01:27;32.30;;;29.03;;
11518;SDS011;5816;48.228;14.116;2023-01-09T08:06:29;33.10;;;29.67;;
11518;SDS011;5816;48.228;14.116;2023-01-09T08:11:31;32.20;;;28.90;;
11518;SDS011;5816;48.228;14.116;2023-01-09T08:16:33;31.03;;;27.97;;
11518;SDS011;5816;48.228;14.116;2023-01-09T08:21:35;31.60;;;28.60;;
11518;SDS011;5816;48.228;14.116;2023-01-09T08:26:36;34.17;;;30.77;;
11518;SDS011;5816;48.228;14.116;2023-01-09T08:31:38;32.37;;;29.07;;
11518;SDS011;5816;48.228;14.116;2023-01-09T08:36:40;34.13;;;30.57;;
11518;SDS011;5816;48.228;14.116;2023-01-09T08:41:42;31.97;;;28.73;;
11518;SDS011;5816;48.228;14.116;2023-01-09T08:47:02;25.37;;;23.23;;
11518;SDS011;5816;48.228;14.116;2023-01-09T08:52:07;15.77;;;14.67;;
11518;SDS011;5816;48.228;14.116;2023-01-09T08:57:10;15.17;;;14.37;;
11518;SDS011;5816;48.228;14.116;2023-01-09T09:02:11;14.83;;;14.03;;
11518;SDS011;5816;48.228;14.116;2023-01-09T09:07:13;16.30;;;15.30;;
11518;SDS011;5816;48.228;14.116;2023-01-09T09:12:15;15.30;;;14.40;;
11518;SDS011;5816;48.228;14.116;2023-01-09T09:17:16;15.27;;;14.37;;
11518;SDS011;5816;48.228;14.116;2023-01-09T09:22:18;15.43;;;14.53;;
11518;SDS011;5816;48.228;14.116;2023-01-09T09:27:20;16.40;;;15.40;;
11518;SDS011;5816;48.228;14.116;2023-01-09T09:32:22;16.23;;;15.13;;
11518;SDS011;5816;48.228;14.116;2023-01-09T09:37:23;16.33;;;15.23;;
11518;SDS011;5816;48.228;14.116;2023-01-09T09:42:33;16.93;;;15.83;;
11518;SDS011;5816;48.228;14.116;2023-01-09T09:58:45;17.13;;;15.93;;
11518;SDS011;5816;48.228;14.116;2023-01-09T10:03:55;18.07;;;16.37;;
11518;SDS011;5816;48.228;14.116;2023-01-09T10:09:03;17.10;;;15.67;;
11518;SDS011;5816;48.228;14.116;2023-01-09T10:14:08;14.90;;;14.00;;
11518;SDS011;5816;48.228;14.116;2023-01-09T10:19:41;14.90;;;13.90;;
11518;SDS011;5816;48.228;14.116;2023-01-09T10:41:08;13.90;;;13.10;;
11518;SDS011;5816;48.228;14.116;2023-01-09T10:46:18;14.50;;;13.70;;
11518;SDS011;5816;48.228;14.116;2023-01-09T10:51:34;14.47;;;13.57;;
11518;SDS011;5816;48.228;14.116;2023-01-09T10:56:42;13.40;;;12.70;;
11518;SDS011;5816;48.228;14.116;2023-01-09T11:01:48;13.50;;;12.60;;
11518;SDS011;5816;48.228;14.116;2023-01-09T11:06:52;13.23;;;12.53;;
11518;SDS011;5816;48.228;14.116;2023-01-09T11:11:58;13.80;;;12.80;;
11518;SDS011;5816;48.228;14.116;2023-01-09T11:17:00;13.97;;;13.17;;
11518;SDS011;5816;48.228;14.116;2023-01-09T11:22:05;13.53;;;12.83;;
11518;SDS011;5816;48.228;14.116;2023-01-09T11:27:21;14.30;;;13.50;;
11518;SDS011;5816;48.228;14.116;2023-01-09T11:32:24;14.33;;;13.53;;
11518;SDS011;5816;48.228;14.116;2023-01-09T11:37:27;13.87;;;13.17;;
11518;SDS011;5816;48.228;14.116;2023-01-09T11:42:30;14.43;;;13.53;;
11518;SDS011;5816;48.228;14.116;2023-01-09T11:47:51;14.70;;;13.70;;
11518;SDS011;5816;48.228;14.116;2023-01-09T11:58:19;14.83;;;14.03;;
11518;SDS011;5816;48.228;14.116;2023-01-09T12:19:20;14.50;;;13.70;;
11518;SDS011;5816;48.228;14.116;2023-01-09T12:29:56;14.30;;;13.50;;
11518;SDS011;5816;48.228;14.116;2023-01-09T12:46:30;14.97;;;14.17;;
11518;SDS011;5816;48.228;14.116;2023-01-09T12:51:36;15.00;;;14.20;;
11518;SDS011;5816;48.228;14.116;2023-01-09T12:56:46;15.53;;;14.43;;
11518;SDS011;5816;48.228;14.116;2023-01-09T13:07:29;15.47;;;14.57;;
11518;SDS011;5816;48.228;14.116;2023-01-09T13:12:52;15.30;;;14.40;;
11518;SDS011;5816;48.228;14.116;2023-01-09T13:23:42;16.10;;;15.00;;
11518;SDS011;5816;48.228;14.116;2023-01-09T13:34:22;15.33;;;14.33;;
11518;SDS011;5816;48.228;14.116;2023-01-09T13:39:31;15.60;;;14.70;;
11518;SDS011;5816;48.228;14.116;2023-01-09T13:44:35;17.97;;;16.57;;
11518;SDS011;5816;48.228;14.116;2023-01-09T13:59:47;16.03;;;15.03;;
11518;SDS011;5816;48.228;14.116;2023-01-09T14:04:50;16.27;;;15.37;;
11518;SDS011;5816;48.228;14.116;2023-01-09T14:09:58;15.97;;;15.07;;
11518;SDS011;5816;48.228;14.116;2023-01-09T14:15:05;16.90;;;15.70;;
11518;SDS011;5816;48.228;14.116;2023-01-09T14:20:26;17.00;;;15.80;;
11518;SDS011;5816;48.228;14.116;2023-01-09T14:25:33;18.93;;;17.33;;
11518;SDS011;5816;48.228;14.116;2023-01-09T14:36:09;24.57;;;22.13;;
11518;SDS011;5816;48.228;14.116;2023-01-09T14:41:26;23.70;;;21.50;;
11518;SDS011;5816;48.228;14.116;2023-01-09T14:46:48;21.93;;;20.03;;
11518;SDS011;5816;48.228;14.116;2023-01-09T14:51:52;22.53;;;20.47;;
11518;SDS011;5816;48.228;14.116;2023-01-09T14:56:55;23.10;;;20.93;;
11518;SDS011;5816;48.228;14.116;2023-01-09T15:02:00;33.87;;;30.33;;
11518;SDS011;5816;48.228;14.116;2023-01-09T15:07:02;23.40;;;21.50;;
11518;SDS011;5816;48.228;14.116;2023-01-09T15:12:07;20.83;;;19.17;;
11518;SDS011;5816;48.228;14.116;2023-01-09T15:17:30;20.27;;;18.73;;
11518;SDS011;5816;48.228;14.116;2023-01-09T15:22:35;18.63;;;17.40;;
11518;SDS011;5816;48.228;14.116;2023-01-09T15:27:47;18.50;;;17.20;;
11518;SDS011;5816;48.228;14.116;2023-01-09T15:32:59;18.13;;;16.67;;
11518;SDS011;5816;48.228;14.116;2023-01-09T15:38:05;17.27;;;16.07;;
11518;SDS011;5816;48.228;14.116;2023-01-09T15:43:12;17.47;;;16.27;;
11518;SDS011;5816;48.228;14.116;2023-01-09T15:48:20;17.70;;;16.40;;
11518;SDS011;5816;48.228;14.116;2023-01-09T15:53:23;17.90;;;16.50;;
11518;SDS011;5816;48.228;14.116;2023-01-09T15:58:28;19.60;;;17.73;;
11518;SDS011;5816;48.228;14.116;2023-01-09T16:03:36;19.70;;;17.37;;
11518;SDS011;5816;48.228;14.116;2023-01-09T16:08:40;16.80;;;15.60;;
11518;SDS011;5816;48.228;14.116;2023-01-09T16:13:47;16.53;;;15.23;;
11518;SDS011;5816;48.228;14.116;2023-01-09T16:18:51;15.70;;;14.80;;
11518;SDS011;5816;48.228;14.116;2023-01-09T16:23:58;16.20;;;15.20;;
11518;SDS011;5816;48.228;14.116;2023-01-09T16:29:27;15.90;;;14.80;;
11518;SDS011;5816;48.228;14.116;2023-01-09T16:34:35;16.60;;;15.50;;
11518;SDS011;5816;48.228;14.116;2023-01-09T16:39:44;17.53;;;16.33;;
11518;SDS011;5816;48.228;14.116;2023-01-09T16:45:23;17.33;;;16.07;;
11518;SDS011;5816;48.228;14.116;2023-01-09T16:50:26;17.57;;;16.27;;
11518;SDS011;5816;48.228;14.116;2023-01-09T16:55:28;17.23;;;16.03;;
11518;SDS011;5816;48.228;14.116;2023-01-09T17:00:30;17.80;;;16.60;;
11518;SDS011;5816;48.228;14.116;2023-01-09T17:05:32;18.30;;;17.00;;
11518;SDS011;5816;48.228;14.116;2023-01-09T17:10:34;19.10;;;17.70;;
11518;SDS011;5816;48.228;14.116;2023-01-09T17:15:35;20.43;;;18.63;;
11518;SDS011;5816;48.228;14.116;2023-01-09T17:20:37;20.63;;;19.03;;
11518;SDS011;5816;48.228;14.116;2023-01-09T17:25:41;18.33;;;16.87;;
11518;SDS011;5816;48.228;14.116;2023-01-09T17:31:03;20.10;;;18.50;;
11518;SDS011;5816;48.228;14.116;2023-01-09T17:36:28;26.30;;;23.13;;
11518;SDS011;5816;48.228;14.116;2023-01-09T17:41:34;25.10;;;22.40;;
11518;SDS011;5816;48.228;14.116;2023-01-09T17:46:38;23.83;;;21.33;;
11518;SDS011;5816;48.228;14.116;2023-01-09T17:51:41;18.70;;;17.20;;
11518;SDS011;5816;48.228;14.116;2023-01-09T17:56:47;19.70;;;18.20;;
11518;SDS011;5816;48.228;14.116;2023-01-09T18:01:52;19.03;;;17.60;;
11518;SDS011;5816;48.228;14.116;2023-01-09T18:06:54;20.10;;;18.27;;
11518;SDS011;5816;48.228;14.116;2023-01-09T18:11:58;19.73;;;18.23;;
11518;SDS011;5816;48.228;14.116;2023-01-09T18:17:08;17.70;;;16.40;;
11518;SDS011;5816;48.228;14.116;2023-01-09T18:22:12;18.53;;;16.97;;
11518;SDS011;5816;48.228;14.116;2023-01-09T18:27:14;18.07;;;16.80;;
11518;SDS011;5816;48.228;14.116;2023-01-09T18:32:17;19.17;;;17.77;;
11518;SDS011;5816;48.228;14.116;2023-01-09T18:37:19;21.77;;;19.67;;
11518;SDS011;5816;48.228;14.116;2023-01-09T18:42:22;23.53;;;20.53;;
11518;SDS011;5816;48.228;14.116;2023-01-09T18:47:26;18.30;;;17.00;;
11518;SDS011;5816;48.228;14.116;2023-01-09T18:52:27;18.60;;;17.20;;
11518;SDS011;5816;48.228;14.116;2023-01-09T18:57:31;20.20;;;18.30;;
11518;SDS011;5816;48.228;14.116;2023-01-09T19:02:33;18.00;;;16.40;;
11518;SDS011;5816;48.228;14.116;2023-01-09T19:07:37;18.93;;;17.53;;
11518;SDS011;5816;48.228;14.116;2023-01-09T19:12:43;26.57;;;19.53;;
11518;SDS011;5816;48.228;14.116;2023-01-09T19:17:45;22.03;;;19.80;;
11518;SDS011;5816;48.228;14.116;2023-01-09T19:22:50;20.63;;;18.57;;
11518;SDS011;5816;48.228;14.116;2023-01-09T19:27:52;21.03;;;19.10;;
11518;SDS011;5816;48.228;14.116;2023-01-09T19:32:55;20.90;;;19.20;;
11518;SDS011;5816;48.228;14.116;2023-01-09T19:37:57;20.33;;;18.70;;
11518;SDS011;5816;48.228;14.116;2023-01-09T19:42:59;17.50;;;16.30;;
11518;SDS011;5816;48.228;14.116;2023-01-09T19:48:00;16.97;;;15.83;;
11518;SDS011;5816;48.228;14.116;2023-01-09T19:53:02;16.73;;;15.63;;
11518;SDS011;5816;48.228;14.116;2023-01-09T19:58:04;17.17;;;15.97;;
11518;SDS011;5816;48.228;14.116;2023-01-09T20:03:05;17.03;;;15.80;;
11518;SDS011;5816;48.228;14.116;2023-01-09T20:08:07;17.83;;;16.20;;
11518;SDS011;5816;48.228;14.116;2023-01-09T20:13:09;17.50;;;16.17;;
11518;SDS011;5816;48.228;14.116;2023-01-09T20:18:11;16.97;;;15.77;;
11518;SDS011;5816;48.228;14.116;2023-01-09T20:23:12;17.77;;;16.27;;
11518;SDS011;5816;48.228;14.116;2023-01-09T20:28:17;17.83;;;16.37;;
